sensor_id;sensor_type;location;lat;lon;timestamp;temperature;humidity
25536;DHT22;13431;51.352;6.412;2022-09-23T00:01:18;8.70;99.90
25536;DHT22;13431;51.352;6.412;2022-09-23T00:03:46;8.70;99.90
25536;DHT22;13431;51.352;6.412;2022-09-23T00:06:22;8.80;99.90
25536;DHT22;13431;51.352;6.412;2022-09-23T00:08:50;8.70;99.90
25536;DHT22;13431;51.352;6.412;2022-09-23T00:11:21;8.70;99.90
25536;DHT22;13431;51.352;6.412;2022-09-23T00:13:52;8.70;99.90
25536;DHT22;13431;51.352;6.412;2022-09-23T00:16:23;8.70;99.90
25536;DHT22;13431;51.352;6.412;2022-09-23T00:18:51;8.70;99.90
25536;DHT22;13431;51.352;6.412;2022-09-23T00:21:19;8.70;99.90
25536;DHT22;13431;51.352;6.412;2022-09-23T00:23:47;8.80;99.90
25536;DHT22;13431;51.352;6.412;2022-09-23T00:26:17;8.80;99.90
25536;DHT22;13431;51.352;6.412;2022-09-23T00:28:45;8.80;99.90
25536;DHT22;13431;51.352;6.412;2022-09-23T00:31:21;8.60;99.90
25536;DHT22;13431;51.352;6.412;2022-09-23T00:33:57;8.60;99.90
25536;DHT22;13431;51.352;6.412;2022-09-23T00:36:26;8.50;99.90
25536;DHT22;13431;51.352;6.412;2022-09-23T00:38:54;8.50;99.90
25536;DHT22;13431;51.352;6.412;2022-09-23T00:41:22;8.40;99.90
25536;DHT22;13431;51.352;6.412;2022-09-23T00:43:52;8.40;99.90
25536;DHT22;13431;51.352;6.412;2022-09-23T00:46:27;8.30;99.90
25536;DHT22;13431;51.352;6.412;2022-09-23T00:48:59;8.20;99.90
25536;DHT22;13431;51.352;6.412;2022-09-23T00:51:32;8.20;99.90
25536;DHT22;13431;51.352;6.412;2022-09-23T00:54:01;8.20;99.90
25536;DHT22;13431;51.352;6.412;2022-09-23T00:56:29;8.20;99.90
25536;DHT22;13431;51.352;6.412;2022-09-23T00:58:57;8.20;99.90
25536;DHT22;13431;51.352;6.412;2022-09-23T01:01:26;8.20;99.90
25536;DHT22;13431;51.352;6.412;2022-09-23T01:03:54;8.30;99.90
25536;DHT22;13431;51.352;6.412;2022-09-23T01:06:23;8.30;99.90
25536;DHT22;13431;51.352;6.412;2022-09-23T01:08:51;8.40;99.90
25536;DHT22;13431;51.352;6.412;2022-09-23T01:22:12;8.50;99.90
25536;DHT22;13431;51.352;6.412;2022-09-23T01:27:56;8.50;99.90
25536;DHT22;13431;51.352;6.412;2022-09-23T01:30:40;8.50;99.90
25536;DHT22;13431;51.352;6.412;2022-09-23T01:33:12;8.50;99.90
25536;DHT22;13431;51.352;6.412;2022-09-23T01:36:12;8.50;99.90
25536;DHT22;13431;51.352;6.412;2022-09-23T01:41:22;8.50;99.90
25536;DHT22;13431;51.352;6.412;2022-09-23T01:46:57;8.50;99.90
25536;DHT22;13431;51.352;6.412;2022-09-23T01:52:38;8.40;99.90
25536;DHT22;13431;51.352;6.412;2022-09-23T01:57:41;8.40;99.90
25536;DHT22;13431;51.352;6.412;2022-09-23T02:00:15;8.40;99.90
25536;DHT22;13431;51.352;6.412;2022-09-23T02:03:06;8.50;99.90
25536;DHT22;13431;51.352;6.412;2022-09-23T02:05:43;8.40;99.90
25536;DHT22;13431;51.352;6.412;2022-09-23T02:08:30;8.40;99.90
25536;DHT22;13431;51.352;6.412;2022-09-23T02:11:09;8.30;99.90
25536;DHT22;13431;51.352;6.412;2022-09-23T02:22:11;8.40;99.90
25536;DHT22;13431;51.352;6.412;2022-09-23T02:24:40;8.40;99.90
25536;DHT22;13431;51.352;6.412;2022-09-23T02:40:40;8.20;99.90
25536;DHT22;13431;51.352;6.412;2022-09-23T02:46:03;8.10;99.90
25536;DHT22;13431;51.352;6.412;2022-09-23T02:48:39;8.00;99.90
25536;DHT22;13431;51.352;6.412;2022-09-23T02:51:08;7.90;99.90
25536;DHT22;13431;51.352;6.412;2022-09-23T02:53:36;7.90;99.90
25536;DHT22;13431;51.352;6.412;2022-09-23T02:56:16;7.90;99.90
25536;DHT22;13431;51.352;6.412;2022-09-23T02:58:46;7.90;99.90
25536;DHT22;13431;51.352;6.412;2022-09-23T03:07:13;7.70;99.90
25536;DHT22;13431;51.352;6.412;2022-09-23T03:10:08;7.70;99.90
25536;DHT22;13431;51.352;6.412;2022-09-23T03:12:40;7.60;99.90
25536;DHT22;13431;51.352;6.412;2022-09-23T03:15:20;7.60;99.90
25536;DHT22;13431;51.352;6.412;2022-09-23T03:18:09;7.60;99.90
25536;DHT22;13431;51.352;6.412;2022-09-23T03:23:33;7.60;99.90
25536;DHT22;13431;51.352;6.412;2022-09-23T03:26:10;7.50;99.90
25536;DHT22;13431;51.352;6.412;2022-09-23T03:28:40;7.50;99.90
25536;DHT22;13431;51.352;6.412;2022-09-23T03:31:11;7.50;99.90
25536;DHT22;13431;51.352;6.412;2022-09-23T03:33:55;7.40;99.90
25536;DHT22;13431;51.352;6.412;2022-09-23T03:36:31;7.40;99.90
25536;DHT22;13431;51.352;6.412;2022-09-23T03:41:54;7.30;99.90
25536;DHT22;13431;51.352;6.412;2022-09-23T03:44:23;7.40;99.90
25536;DHT22;13431;51.352;6.412;2022-09-23T03:46:50;7.30;99.90
25536;DHT22;13431;51.352;6.412;2022-09-23T03:49:23;7.40;99.90
25536;DHT22;13431;51.352;6.412;2022-09-23T03:51:56;7.30;99.90
25536;DHT22;13431;51.352;6.412;2022-09-23T03:54:24;7.30;99.90
25536;DHT22;13431;51.352;6.412;2022-09-23T03:56:51;7.30;99.90
25536;DHT22;13431;51.352;6.412;2022-09-23T03:59:19;7.30;99.90
25536;DHT22;13431;51.352;6.412;2022-09-23T04:01:46;7.40;99.90
25536;DHT22;13431;51.352;6.412;2022-09-23T04:04:13;7.30;99.90
25536;DHT22;13431;51.352;6.412;2022-09-23T04:06:41;7.30;99.90
25536;DHT22;13431;51.352;6.412;2022-09-23T04:09:08;7.30;99.90
25536;DHT22;13431;51.352;6.412;2022-09-23T04:11:35;7.30;99.90
25536;DHT22;13431;51.352;6.412;2022-09-23T04:14:03;7.30;99.90
25536;DHT22;13431;51.352;6.412;2022-09-23T04:16:30;7.30;99.90
25536;DHT22;13431;51.352;6.412;2022-09-23T04:18:58;7.30;99.90
25536;DHT22;13431;51.352;6.412;2022-09-23T04:21:25;7.20;99.90
25536;DHT22;13431;51.352;6.412;2022-09-23T04:23:53;7.20;99.90
25536;DHT22;13431;51.352;6.412;2022-09-23T04:26:20;7.10;99.90
25536;DHT22;13431;51.352;6.412;2022-09-23T04:28:47;7.10;99.90
25536;DHT22;13431;51.352;6.412;2022-09-23T04:31:15;7.00;99.90
25536;DHT22;13431;51.352;6.412;2022-09-23T04:33:42;7.00;99.90
25536;DHT22;13431;51.352;6.412;2022-09-23T04:36:10;7.10;99.90
25536;DHT22;13431;51.352;6.412;2022-09-23T04:38:37;7.10;99.90
25536;DHT22;13431;51.352;6.412;2022-09-23T04:41:08;7.20;99.90
25536;DHT22;13431;51.352;6.412;2022-09-23T04:43:35;7.30;99.90
25536;DHT22;13431;51.352;6.412;2022-09-23T04:46:05;7.20;99.90
25536;DHT22;13431;51.352;6.412;2022-09-23T04:48:34;7.30;99.90
25536;DHT22;13431;51.352;6.412;2022-09-23T04:53:41;7.20;99.90
25536;DHT22;13431;51.352;6.412;2022-09-23T04:56:20;7.20;99.90
25536;DHT22;13431;51.352;6.412;2022-09-23T04:58:48;7.20;99.90
25536;DHT22;13431;51.352;6.412;2022-09-23T05:01:22;7.10;99.90
25536;DHT22;13431;51.352;6.412;2022-09-23T05:03:55;7.10;99.90
25536;DHT22;13431;51.352;6.412;2022-09-23T05:06:24;7.10;99.90
25536;DHT22;13431;51.352;6.412;2022-09-23T05:08:53;7.00;99.90
25536;DHT22;13431;51.352;6.412;2022-09-23T05:11:21;7.00;99.90
25536;DHT22;13431;51.352;6.412;2022-09-23T05:13:51;7.10;99.90
25536;DHT22;13431;51.352;6.412;2022-09-23T05:16:20;7.20;99.90
25536;DHT22;13431;51.352;6.412;2022-09-23T05:18:50;7.20;99.90
25536;DHT22;13431;51.352;6.412;2022-09-23T05:21:19;7.10;99.90
25536;DHT22;13431;51.352;6.412;2022-09-23T05:23:52;7.10;99.90
25536;DHT22;13431;51.352;6.412;2022-09-23T05:26:22;7.00;99.90
25536;DHT22;13431;51.352;6.412;2022-09-23T05:28:52;7.00;99.90
25536;DHT22;13431;51.352;6.412;2022-09-23T05:31:22;7.00;99.90
25536;DHT22;13431;51.352;6.412;2022-09-23T05:34:01;7.10;99.90
25536;DHT22;13431;51.352;6.412;2022-09-23T05:36:31;7.20;99.90
25536;DHT22;13431;51.352;6.412;2022-09-23T05:39:04;7.20;99.90
25536;DHT22;13431;51.352;6.412;2022-09-23T05:41:32;7.20;99.90
25536;DHT22;13431;51.352;6.412;2022-09-23T05:44:00;7.30;99.90
25536;DHT22;13431;51.352;6.412;2022-09-23T05:46:29;7.40;99.90
25536;DHT22;13431;51.352;6.412;2022-09-23T05:48:58;7.50;99.90
25536;DHT22;13431;51.352;6.412;2022-09-23T05:51:37;7.60;99.90
25536;DHT22;13431;51.352;6.412;2022-09-23T05:54:04;7.70;99.90
25536;DHT22;13431;51.352;6.412;2022-09-23T05:56:32;7.80;99.90
25536;DHT22;13431;51.352;6.412;2022-09-23T05:59:01;8.00;99.90
25536;DHT22;13431;51.352;6.412;2022-09-23T06:01:32;8.20;99.90
25536;DHT22;13431;51.352;6.412;2022-09-23T06:04:02;8.30;99.90
25536;DHT22;13431;51.352;6.412;2022-09-23T06:06:38;8.50;99.90
25536;DHT22;13431;51.352;6.412;2022-09-23T06:09:06;8.60;99.90
25536;DHT22;13431;51.352;6.412;2022-09-23T06:11:36;8.70;99.90
25536;DHT22;13431;51.352;6.412;2022-09-23T06:14:03;8.80;99.90
25536;DHT22;13431;51.352;6.412;2022-09-23T06:16:33;9.00;99.90
25536;DHT22;13431;51.352;6.412;2022-09-23T06:19:01;9.10;99.90
25536;DHT22;13431;51.352;6.412;2022-09-23T06:21:38;9.30;99.90
25536;DHT22;13431;51.352;6.412;2022-09-23T06:24:06;9.60;99.90
25536;DHT22;13431;51.352;6.412;2022-09-23T06:26:35;9.80;99.90
25536;DHT22;13431;51.352;6.412;2022-09-23T06:29:09;10.00;99.90
25536;DHT22;13431;51.352;6.412;2022-09-23T06:31:38;10.20;99.90
25536;DHT22;13431;51.352;6.412;2022-09-23T06:34:09;10.40;99.90
25536;DHT22;13431;51.352;6.412;2022-09-23T06:36:41;10.60;99.90
25536;DHT22;13431;51.352;6.412;2022-09-23T06:39:13;10.60;99.90
25536;DHT22;13431;51.352;6.412;2022-09-23T06:41:40;10.80;99.90
25536;DHT22;13431;51.352;6.412;2022-09-23T06:44:12;10.90;99.90
25536;DHT22;13431;51.352;6.412;2022-09-23T06:46:40;11.00;99.90
25536;DHT22;13431;51.352;6.412;2022-09-23T06:49:07;11.10;99.90
25536;DHT22;13431;51.352;6.412;2022-09-23T06:51:34;11.10;99.90
25536;DHT22;13431;51.352;6.412;2022-09-23T06:54:02;11.20;99.90
25536;DHT22;13431;51.352;6.412;2022-09-23T06:56:29;11.40;99.90
25536;DHT22;13431;51.352;6.412;2022-09-23T06:59:05;11.50;99.90
25536;DHT22;13431;51.352;6.412;2022-09-23T07:01:33;11.60;99.90
25536;DHT22;13431;51.352;6.412;2022-09-23T07:04:01;11.80;99.90
25536;DHT22;13431;51.352;6.412;2022-09-23T07:06:28;11.80;99.90
25536;DHT22;13431;51.352;6.412;2022-09-23T07:08:55;12.00;99.90
25536;DHT22;13431;51.352;6.412;2022-09-23T07:11:22;12.10;99.90
25536;DHT22;13431;51.352;6.412;2022-09-23T07:13:50;12.10;99.90
25536;DHT22;13431;51.352;6.412;2022-09-23T07:16:17;12.30;99.90
25536;DHT22;13431;51.352;6.412;2022-09-23T07:18:45;12.30;99.90
25536;DHT22;13431;51.352;6.412;2022-09-23T07:21:15;12.50;99.90
25536;DHT22;13431;51.352;6.412;2022-09-23T07:23:44;12.50;99.90
25536;DHT22;13431;51.352;6.412;2022-09-23T07:26:13;12.50;99.90
25536;DHT22;13431;51.352;6.412;2022-09-23T07:28:42;12.30;99.90
25536;DHT22;13431;51.352;6.412;2022-09-23T07:31:11;12.20;99.90
25536;DHT22;13431;51.352;6.412;2022-09-23T07:33:40;12.30;99.90
25536;DHT22;13431;51.352;6.412;2022-09-23T07:36:18;12.30;99.90
25536;DHT22;13431;51.352;6.412;2022-09-23T07:38:46;12.40;99.90
25536;DHT22;13431;51.352;6.412;2022-09-23T07:41:16;12.60;99.90
25536;DHT22;13431;51.352;6.412;2022-09-23T07:43:44;12.80;99.90
25536;DHT22;13431;51.352;6.412;2022-09-23T07:46:15;13.00;99.90
25536;DHT22;13431;51.352;6.412;2022-09-23T07:48:44;13.20;99.90
25536;DHT22;13431;51.352;6.412;2022-09-23T07:51:16;13.40;99.90
25536;DHT22;13431;51.352;6.412;2022-09-23T07:53:46;13.70;99.90
25536;DHT22;13431;51.352;6.412;2022-09-23T07:56:15;14.10;99.90
25536;DHT22;13431;51.352;6.412;2022-09-23T07:58:46;14.30;99.90
25536;DHT22;13431;51.352;6.412;2022-09-23T08:01:32;14.50;99.90
25536;DHT22;13431;51.352;6.412;2022-09-23T08:04:07;14.60;99.90
25536;DHT22;13431;51.352;6.412;2022-09-23T08:06:36;14.90;99.90
25536;DHT22;13431;51.352;6.412;2022-09-23T08:09:05;15.00;99.90
25536;DHT22;13431;51.352;6.412;2022-09-23T08:11:33;15.10;99.90
25536;DHT22;13431;51.352;6.412;2022-09-23T08:14:01;15.30;99.90
25536;DHT22;13431;51.352;6.412;2022-09-23T08:16:28;15.50;99.90
25536;DHT22;13431;51.352;6.412;2022-09-23T08:18:56;15.30;99.90
25536;DHT22;13431;51.352;6.412;2022-09-23T08:21:23;15.20;99.90
25536;DHT22;13431;51.352;6.412;2022-09-23T08:23:51;15.60;99.90
25536;DHT22;13431;51.352;6.412;2022-09-23T08:26:18;15.70;99.90
25536;DHT22;13431;51.352;6.412;2022-09-23T08:28:49;15.40;99.90
25536;DHT22;13431;51.352;6.412;2022-09-23T08:31:21;15.40;99.90
25536;DHT22;13431;51.352;6.412;2022-09-23T08:33:56;15.40;99.90
25536;DHT22;13431;51.352;6.412;2022-09-23T08:36:25;15.30;99.90
25536;DHT22;13431;51.352;6.412;2022-09-23T08:38:53;15.60;99.90
25536;DHT22;13431;51.352;6.412;2022-09-23T08:44:29;17.10;99.90
25536;DHT22;13431;51.352;6.412;2022-09-23T08:47:22;19.00;99.90
25536;DHT22;13431;51.352;6.412;2022-09-23T08:55:41;21.30;99.90
25536;DHT22;13431;51.352;6.412;2022-09-23T09:03:57;22.80;99.90
25536;DHT22;13431;51.352;6.412;2022-09-23T09:09:21;22.50;99.90
25536;DHT22;13431;51.352;6.412;2022-09-23T09:11:54;21.70;99.90
25536;DHT22;13431;51.352;6.412;2022-09-23T09:14:42;21.90;99.90
25536;DHT22;13431;51.352;6.412;2022-09-23T09:17:25;22.30;99.90
25536;DHT22;13431;51.352;6.412;2022-09-23T09:20:22;21.50;99.90
25536;DHT22;13431;51.352;6.412;2022-09-23T09:22:55;21.80;99.90
25536;DHT22;13431;51.352;6.412;2022-09-23T09:25:41;22.30;99.90
25536;DHT22;13431;51.352;6.412;2022-09-23T09:28:17;22.60;99.90
25536;DHT22;13431;51.352;6.412;2022-09-23T09:30:51;22.90;99.90
25536;DHT22;13431;51.352;6.412;2022-09-23T09:33:25;23.10;99.90
25536;DHT22;13431;51.352;6.412;2022-09-23T09:38:39;23.20;99.90
25536;DHT22;13431;51.352;6.412;2022-09-23T09:41:12;23.10;99.90
25536;DHT22;13431;51.352;6.412;2022-09-23T09:43:40;22.90;99.90
25536;DHT22;13431;51.352;6.412;2022-09-23T09:47:01;22.10;99.90
25536;DHT22;13431;51.352;6.412;2022-09-23T09:52:12;21.80;99.90
25536;DHT22;13431;51.352;6.412;2022-09-23T09:54:40;21.80;99.90
25536;DHT22;13431;51.352;6.412;2022-09-23T09:57:21;21.70;99.90
25536;DHT22;13431;51.352;6.412;2022-09-23T10:00:30;22.10;99.90
25536;DHT22;13431;51.352;6.412;2022-09-23T10:03:23;22.90;99.90
25536;DHT22;13431;51.352;6.412;2022-09-23T10:05:52;22.70;99.90
25536;DHT22;13431;51.352;6.412;2022-09-23T10:11:14;23.00;99.90
25536;DHT22;13431;51.352;6.412;2022-09-23T10:14:05;22.80;99.90
25536;DHT22;13431;51.352;6.412;2022-09-23T10:16:33;22.70;99.90
25536;DHT22;13431;51.352;6.412;2022-09-23T10:19:03;23.30;99.90
25536;DHT22;13431;51.352;6.412;2022-09-23T10:21:37;23.60;99.90
25536;DHT22;13431;51.352;6.412;2022-09-23T10:24:05;23.20;99.90
25536;DHT22;13431;51.352;6.412;2022-09-23T10:26:43;22.50;99.90
25536;DHT22;13431;51.352;6.412;2022-09-23T10:29:39;22.90;99.90
25536;DHT22;13431;51.352;6.412;2022-09-23T10:35:00;23.50;99.90
25536;DHT22;13431;51.352;6.412;2022-09-23T10:37:50;23.40;99.90
25536;DHT22;13431;51.352;6.412;2022-09-23T10:40:39;23.60;99.90
25536;DHT22;13431;51.352;6.412;2022-09-23T10:43:48;23.10;99.90
25536;DHT22;13431;51.352;6.412;2022-09-23T10:46:39;22.20;99.90
25536;DHT22;13431;51.352;6.412;2022-09-23T10:52:32;21.40;99.90
25536;DHT22;13431;51.352;6.412;2022-09-23T10:58:04;20.50;99.90
25536;DHT22;13431;51.352;6.412;2022-09-23T11:01:59;20.20;99.90
25536;DHT22;13431;51.352;6.412;2022-09-23T11:12:34;20.70;99.90
25536;DHT22;13431;51.352;6.412;2022-09-23T11:20:53;20.20;99.90
25536;DHT22;13431;51.352;6.412;2022-09-23T11:35:23;21.20;99.90
25536;DHT22;13431;51.352;6.412;2022-09-23T11:38:43;21.50;99.90
25536;DHT22;13431;51.352;6.412;2022-09-23T11:40:46;21.40;99.90
25536;DHT22;13431;51.352;6.412;2022-09-23T11:43:28;20.90;99.90
25536;DHT22;13431;51.352;6.412;2022-09-23T11:46:17;21.10;99.90
25536;DHT22;13431;51.352;6.412;2022-09-23T11:51:39;21.60;99.90
25536;DHT22;13431;51.352;6.412;2022-09-23T11:54:18;21.90;99.90
25536;DHT22;13431;51.352;6.412;2022-09-23T11:56:51;21.60;99.90
25536;DHT22;13431;51.352;6.412;2022-09-23T11:59:36;21.80;99.90
25536;DHT22;13431;51.352;6.412;2022-09-23T12:02:14;21.50;99.90
25536;DHT22;13431;51.352;6.412;2022-09-23T12:04:59;21.50;99.90
25536;DHT22;13431;51.352;6.412;2022-09-23T12:10:14;21.40;99.90
25536;DHT22;13431;51.352;6.412;2022-09-23T12:12:54;21.20;99.90
25536;DHT22;13431;51.352;6.412;2022-09-23T12:15:54;21.10;99.90
25536;DHT22;13431;51.352;6.412;2022-09-23T12:19:06;21.10;99.90
25536;DHT22;13431;51.352;6.412;2022-09-23T12:22:17;20.90;99.90
25536;DHT22;13431;51.352;6.412;2022-09-23T12:25:05;20.80;99.90
25536;DHT22;13431;51.352;6.412;2022-09-23T12:27:39;20.80;99.90
25536;DHT22;13431;51.352;6.412;2022-09-23T12:30:18;20.60;99.90
25536;DHT22;13431;51.352;6.412;2022-09-23T12:32:46;20.60;99.90
25536;DHT22;13431;51.352;6.412;2022-09-23T12:35:26;20.60;99.90
25536;DHT22;13431;51.352;6.412;2022-09-23T12:37:59;20.60;99.90
25536;DHT22;13431;51.352;6.412;2022-09-23T12:40:34;20.40;99.90
25536;DHT22;13431;51.352;6.412;2022-09-23T12:43:29;20.40;99.90
25536;DHT22;13431;51.352;6.412;2022-09-23T12:46:26;20.50;99.90
25536;DHT22;13431;51.352;6.412;2022-09-23T12:51:28;20.70;99.90
25536;DHT22;13431;51.352;6.412;2022-09-23T12:53:58;20.90;99.90
25536;DHT22;13431;51.352;6.412;2022-09-23T12:59:22;20.90;99.90
25536;DHT22;13431;51.352;6.412;2022-09-23T13:01:51;20.80;99.90
25536;DHT22;13431;51.352;6.412;2022-09-23T13:07:29;20.60;99.90
25536;DHT22;13431;51.352;6.412;2022-09-23T13:12:47;20.20;99.90
25536;DHT22;13431;51.352;6.412;2022-09-23T13:17:50;20.40;99.90
25536;DHT22;13431;51.352;6.412;2022-09-23T13:25:26;20.50;99.90
25536;DHT22;13431;51.352;6.412;2022-09-23T13:27:57;20.60;99.90
25536;DHT22;13431;51.352;6.412;2022-09-23T13:30:25;20.80;99.90
25536;DHT22;13431;51.352;6.412;2022-09-23T13:33:07;20.70;99.90
25536;DHT22;13431;51.352;6.412;2022-09-23T13:35:39;20.30;99.90
25536;DHT22;13431;51.352;6.412;2022-09-23T13:38:24;20.30;99.90
25536;DHT22;13431;51.352;6.412;2022-09-23T13:41:01;20.40;99.90
25536;DHT22;13431;51.352;6.412;2022-09-23T13:43:42;20.40;99.90
25536;DHT22;13431;51.352;6.412;2022-09-23T13:46:17;20.10;99.90
25536;DHT22;13431;51.352;6.412;2022-09-23T13:48:46;20.10;99.90
25536;DHT22;13431;51.352;6.412;2022-09-23T13:51:43;20.00;99.90
25536;DHT22;13431;51.352;6.412;2022-09-23T13:54:32;20.00;99.90
25536;DHT22;13431;51.352;6.412;2022-09-23T13:57:02;19.70;99.90
25536;DHT22;13431;51.352;6.412;2022-09-23T13:59:36;19.70;99.90
25536;DHT22;13431;51.352;6.412;2022-09-23T14:02:14;19.50;99.90
25536;DHT22;13431;51.352;6.412;2022-09-23T14:04:43;19.80;99.90
25536;DHT22;13431;51.352;6.412;2022-09-23T14:07:14;19.70;99.90
25536;DHT22;13431;51.352;6.412;2022-09-23T14:09:45;19.60;99.90
25536;DHT22;13431;51.352;6.412;2022-09-23T14:12:14;19.60;99.90
25536;DHT22;13431;51.352;6.412;2022-09-23T14:14:49;19.70;99.90
25536;DHT22;13431;51.352;6.412;2022-09-23T14:17:20;19.70;99.90
25536;DHT22;13431;51.352;6.412;2022-09-23T14:19:49;19.60;99.90
25536;DHT22;13431;51.352;6.412;2022-09-23T14:22:22;19.60;99.90
25536;DHT22;13431;51.352;6.412;2022-09-23T14:24:50;19.50;99.90
25536;DHT22;13431;51.352;6.412;2022-09-23T14:27:32;19.60;99.90
25536;DHT22;13431;51.352;6.412;2022-09-23T14:30:03;19.50;99.90
25536;DHT22;13431;51.352;6.412;2022-09-23T14:32:31;19.40;99.90
25536;DHT22;13431;51.352;6.412;2022-09-23T14:40:24;19.10;99.90
25536;DHT22;13431;51.352;6.412;2022-09-23T14:43:04;18.90;99.90
25536;DHT22;13431;51.352;6.412;2022-09-23T14:45:38;18.90;99.90
25536;DHT22;13431;51.352;6.412;2022-09-23T14:50:47;18.80;99.90
25536;DHT22;13431;51.352;6.412;2022-09-23T14:55:45;18.70;99.90
25536;DHT22;13431;51.352;6.412;2022-09-23T14:58:18;18.50;99.90
25536;DHT22;13431;51.352;6.412;2022-09-23T15:00:56;18.40;99.90
25536;DHT22;13431;51.352;6.412;2022-09-23T15:03:26;18.30;99.90
25536;DHT22;13431;51.352;6.412;2022-09-23T15:05:58;18.30;99.90
25536;DHT22;13431;51.352;6.412;2022-09-23T15:08:32;18.20;99.90
25536;DHT22;13431;51.352;6.412;2022-09-23T15:11:04;18.20;99.90
25536;DHT22;13431;51.352;6.412;2022-09-23T15:13:40;18.20;99.90
25536;DHT22;13431;51.352;6.412;2022-09-23T15:16:11;18.20;99.90
25536;DHT22;13431;51.352;6.412;2022-09-23T15:18:43;18.10;99.90
25536;DHT22;13431;51.352;6.412;2022-09-23T15:21:17;18.10;99.90
25536;DHT22;13431;51.352;6.412;2022-09-23T15:26:19;18.10;99.90
25536;DHT22;13431;51.352;6.412;2022-09-23T15:28:48;18.10;99.90
25536;DHT22;13431;51.352;6.412;2022-09-23T15:31:17;18.10;99.90
25536;DHT22;13431;51.352;6.412;2022-09-23T15:33:45;18.00;99.90
25536;DHT22;13431;51.352;6.412;2022-09-23T15:36:19;18.00;99.90
25536;DHT22;13431;51.352;6.412;2022-09-23T15:38:47;17.90;99.90
25536;DHT22;13431;51.352;6.412;2022-09-23T15:41:15;17.70;99.90
25536;DHT22;13431;51.352;6.412;2022-09-23T15:43:43;17.70;99.90
25536;DHT22;13431;51.352;6.412;2022-09-23T15:46:20;17.60;99.90
25536;DHT22;13431;51.352;6.412;2022-09-23T15:51:27;17.50;99.90
25536;DHT22;13431;51.352;6.412;2022-09-23T15:53:54;17.40;99.90
25536;DHT22;13431;51.352;6.412;2022-09-23T15:56:23;17.40;99.90
25536;DHT22;13431;51.352;6.412;2022-09-23T15:58:50;17.30;99.90
25536;DHT22;13431;51.352;6.412;2022-09-23T16:01:26;17.40;99.90
25536;DHT22;13431;51.352;6.412;2022-09-23T16:03:54;17.30;99.90
25536;DHT22;13431;51.352;6.412;2022-09-23T16:06:22;17.30;99.90
25536;DHT22;13431;51.352;6.412;2022-09-23T16:08:50;17.20;99.90
25536;DHT22;13431;51.352;6.412;2022-09-23T16:11:21;17.20;99.90
25536;DHT22;13431;51.352;6.412;2022-09-23T16:13:50;17.20;99.90
25536;DHT22;13431;51.352;6.412;2022-09-23T16:16:18;17.20;99.90
25536;DHT22;13431;51.352;6.412;2022-09-23T16:18:49;17.10;99.90
25536;DHT22;13431;51.352;6.412;2022-09-23T16:21:20;17.10;99.90
25536;DHT22;13431;51.352;6.412;2022-09-23T16:23:49;17.00;99.90
25536;DHT22;13431;51.352;6.412;2022-09-23T16:26:22;16.90;99.90
25536;DHT22;13431;51.352;6.412;2022-09-23T16:28:52;16.80;99.90
25536;DHT22;13431;51.352;6.412;2022-09-23T16:31:21;16.80;99.90
25536;DHT22;13431;51.352;6.412;2022-09-23T16:33:52;16.70;99.90
25536;DHT22;13431;51.352;6.412;2022-09-23T16:36:25;16.60;99.90
25536;DHT22;13431;51.352;6.412;2022-09-23T16:38:54;16.60;99.90
25536;DHT22;13431;51.352;6.412;2022-09-23T16:41:22;16.50;99.90
25536;DHT22;13431;51.352;6.412;2022-09-23T16:43:50;16.40;99.90
25536;DHT22;13431;51.352;6.412;2022-09-23T16:46:18;16.40;99.90
25536;DHT22;13431;51.352;6.412;2022-09-23T16:48:47;16.30;99.90
25536;DHT22;13431;51.352;6.412;2022-09-23T16:51:24;16.20;99.90
25536;DHT22;13431;51.352;6.412;2022-09-23T16:53:53;16.20;99.90
25536;DHT22;13431;51.352;6.412;2022-09-23T16:56:23;16.10;99.90
25536;DHT22;13431;51.352;6.412;2022-09-23T16:58:55;16.00;99.90
25536;DHT22;13431;51.352;6.412;2022-09-23T17:01:24;16.00;99.90
25536;DHT22;13431;51.352;6.412;2022-09-23T17:04:11;16.00;99.90
25536;DHT22;13431;51.352;6.412;2022-09-23T17:06:44;16.00;99.90
25536;DHT22;13431;51.352;6.412;2022-09-23T17:09:12;15.90;99.90
25536;DHT22;13431;51.352;6.412;2022-09-23T17:11:39;15.80;99.90
25536;DHT22;13431;51.352;6.412;2022-09-23T17:14:07;15.70;99.90
25536;DHT22;13431;51.352;6.412;2022-09-23T17:16:36;15.70;99.90
25536;DHT22;13431;51.352;6.412;2022-09-23T17:19:08;15.60;99.90
25536;DHT22;13431;51.352;6.412;2022-09-23T17:21:36;15.60;99.90
25536;DHT22;13431;51.352;6.412;2022-09-23T17:24:04;15.50;99.90
25536;DHT22;13431;51.352;6.412;2022-09-23T17:26:32;15.50;99.90
25536;DHT22;13431;51.352;6.412;2022-09-23T17:28:59;15.50;99.90
25536;DHT22;13431;51.352;6.412;2022-09-23T17:31:28;15.40;99.90
25536;DHT22;13431;51.352;6.412;2022-09-23T17:33:56;15.40;99.90
25536;DHT22;13431;51.352;6.412;2022-09-23T17:36:24;15.40;99.90
25536;DHT22;13431;51.352;6.412;2022-09-23T17:38:51;15.30;99.90
25536;DHT22;13431;51.352;6.412;2022-09-23T17:41:20;15.20;99.90
25536;DHT22;13431;51.352;6.412;2022-09-23T17:43:53;15.20;99.90
25536;DHT22;13431;51.352;6.412;2022-09-23T17:46:21;15.10;99.90
25536;DHT22;13431;51.352;6.412;2022-09-23T17:48:49;15.00;99.90
25536;DHT22;13431;51.352;6.412;2022-09-23T17:51:23;14.90;99.90
25536;DHT22;13431;51.352;6.412;2022-09-23T17:53:51;14.90;99.90
25536;DHT22;13431;51.352;6.412;2022-09-23T17:56:23;14.80;99.90
25536;DHT22;13431;51.352;6.412;2022-09-23T17:58:59;14.80;99.90
25536;DHT22;13431;51.352;6.412;2022-09-23T18:01:27;14.80;99.90
25536;DHT22;13431;51.352;6.412;2022-09-23T18:03:56;14.80;99.90
25536;DHT22;13431;51.352;6.412;2022-09-23T18:06:26;14.70;99.90
25536;DHT22;13431;51.352;6.412;2022-09-23T18:08:54;14.60;99.90
25536;DHT22;13431;51.352;6.412;2022-09-23T18:11:24;14.60;99.90
25536;DHT22;13431;51.352;6.412;2022-09-23T18:13:57;14.60;99.90
25536;DHT22;13431;51.352;6.412;2022-09-23T18:16:35;14.60;99.90
25536;DHT22;13431;51.352;6.412;2022-09-23T18:19:03;14.70;99.90
25536;DHT22;13431;51.352;6.412;2022-09-23T18:21:34;14.70;99.90
25536;DHT22;13431;51.352;6.412;2022-09-23T18:24:02;14.70;99.90
25536;DHT22;13431;51.352;6.412;2022-09-23T18:26:50;14.70;99.90
25536;DHT22;13431;51.352;6.412;2022-09-23T18:29:18;14.50;99.90
25536;DHT22;13431;51.352;6.412;2022-09-23T18:31:45;14.50;99.90
25536;DHT22;13431;51.352;6.412;2022-09-23T18:34:16;14.30;99.90
25536;DHT22;13431;51.352;6.412;2022-09-23T18:36:43;14.30;99.90
25536;DHT22;13431;51.352;6.412;2022-09-23T18:39:11;14.30;99.90
25536;DHT22;13431;51.352;6.412;2022-09-23T18:41:38;14.30;99.90
25536;DHT22;13431;51.352;6.412;2022-09-23T18:44:07;14.20;99.90
25536;DHT22;13431;51.352;6.412;2022-09-23T18:46:35;14.20;99.90
25536;DHT22;13431;51.352;6.412;2022-09-23T18:49:02;14.20;99.90
25536;DHT22;13431;51.352;6.412;2022-09-23T18:51:56;14.20;99.90
25536;DHT22;13431;51.352;6.412;2022-09-23T18:54:25;14.10;99.90
25536;DHT22;13431;51.352;6.412;2022-09-23T18:56:53;14.10;99.90